createdAt,value
2022-11-24T00:01:27.971Z,99320.00
2022-11-24T00:04:42.833Z,99326.91
2022-11-24T00:07:51.939Z,99325.31
2022-11-24T00:11:12.658Z,99327.72
2022-11-24T00:14:27.829Z,99322.91
2022-11-24T00:17:42.841Z,99330.63
2022-11-24T00:20:54.505Z,99327.72
2022-11-24T00:24:02.825Z,99330.91
2022-11-24T00:27:17.826Z,99332.22
2022-11-24T00:30:40.873Z,99330.91
2022-11-24T00:33:51.979Z,99334.06
2022-11-24T00:37:06.818Z,99342.03
2022-11-24T00:40:21.842Z,99346.28
2022-11-24T00:43:29.818Z,99351.59
2022-11-24T00:46:38.903Z,99350.81
2022-11-24T00:49:47.841Z,99355.84
2022-11-24T00:53:02.835Z,99359.00
2022-11-24T00:56:12.353Z,99361.97
2022-11-24T00:59:26.816Z,99360.09
2022-11-24T01:02:34.880Z,99363.28
2022-11-24T01:05:49.832Z,99377.63
2022-11-24T01:09:04.813Z,99373.91
2022-11-24T01:12:20.846Z,99362.25
2022-11-24T01:15:22.947Z,99367.25
2022-11-24T01:18:37.829Z,99370.44
2022-11-24T01:21:40.218Z,99372.06
2022-11-24T01:24:54.859Z,99376.84
2022-11-24T01:28:16.800Z,99376.03
2022-11-24T01:31:33.842Z,99376.56
2022-11-24T01:34:48.824Z,99380.03
2022-11-24T01:37:50.757Z,99377.63
2022-11-24T01:41:12.833Z,99380.78
2022-11-24T01:44:26.993Z,99376.03
2022-11-24T01:47:45.804Z,99384.75
2022-11-24T01:50:53.394Z,99384.25
2022-11-24T01:54:13.812Z,99383.50
2022-11-24T01:57:36.817Z,99381.09
2022-11-24T02:00:40.803Z,99392.78
2022-11-24T02:03:59.848Z,99392.78
2022-11-24T02:07:05.584Z,99388.28
2022-11-24T02:10:22.830Z,99382.69
2022-11-24T02:13:25.194Z,99393.03
2022-11-24T02:16:43.834Z,99377.94
2022-11-24T02:20:07.913Z,99388.81
2022-11-24T02:23:24.425Z,99388.53
2022-11-24T02:26:50.828Z,99384.28
2022-11-24T02:30:06.508Z,99389.59
2022-11-24T02:33:17.804Z,99388.81
2022-11-24T02:36:26.436Z,99394.91
2022-11-24T02:39:34.838Z,99386.16
2022-11-24T02:42:52.858Z,99382.16
2022-11-24T02:45:54.865Z,99392.81
2022-11-24T02:49:09.823Z,99389.34
2022-11-24T02:52:25.807Z,99390.69
2022-11-24T02:55:33.849Z,99386.44
2022-11-24T02:58:42.424Z,99386.97
2022-11-24T03:01:56.898Z,99393.34
2022-11-24T03:05:05.818Z,99393.34
2022-11-24T03:08:14.409Z,99391.25
2022-11-24T03:11:22.833Z,99391.28
2022-11-24T03:14:31.732Z,99393.66
2022-11-24T03:17:40.819Z,99389.69
2022-11-24T03:20:55.825Z,99401.94
2022-11-24T03:24:04.764Z,99415.19
2022-11-24T03:27:12.821Z,99407.78
2022-11-24T03:30:28.379Z,99415.22
2022-11-24T03:33:36.827Z,99416.88
2022-11-24T03:36:45.408Z,99424.31
2022-11-24T03:39:53.831Z,99418.78
2022-11-24T03:43:02.382Z,99424.31
2022-11-24T03:46:10.873Z,99424.34
2022-11-24T03:49:19.358Z,99427.78
2022-11-24T03:52:27.795Z,99423.28
2022-11-24T03:55:42.819Z,99432.34
2022-11-24T03:58:51.476Z,99423.56
2022-11-24T04:02:06.850Z,99429.13
2022-11-24T04:05:15.474Z,99430.22
2022-11-24T04:08:23.809Z,99428.63
2022-11-24T04:11:32.420Z,99435.00
2022-11-24T04:14:46.829Z,99428.34
2022-11-24T04:17:50.040Z,99438.19
2022-11-24T04:21:04.820Z,99442.41
2022-11-24T04:24:13.435Z,99448.81
2022-11-24T04:27:27.832Z,99441.88
2022-11-24T04:30:42.866Z,99451.19
2022-11-24T04:33:57.804Z,99452.56
2022-11-24T04:37:05.803Z,99465.81
2022-11-24T04:40:21.820Z,99460.00
2022-11-24T04:44:16.968Z,99478.09
2022-11-24T04:47:32.986Z,99478.09
2022-11-24T04:50:42.985Z,99472.72
2022-11-24T04:53:51.546Z,99483.88
2022-11-24T04:56:59.959Z,99486.25
2022-11-24T05:00:15.974Z,99490.25
2022-11-24T05:03:30.976Z,99490.53
2022-11-24T05:06:46.984Z,99503.28
2022-11-24T05:09:59.641Z,99491.59
2022-11-24T05:13:13.467Z,99513.63
2022-11-24T05:16:22.010Z,99527.97
2022-11-24T05:19:32.508Z,99527.44
2022-11-24T05:22:47.932Z,99530.59
2022-11-24T05:25:50.117Z,99524.78
2022-11-24T05:29:04.987Z,99517.38
2022-11-24T05:32:13.527Z,99526.38
2022-11-24T05:35:21.946Z,99539.62
2022-11-24T05:38:37.954Z,99527.97
2022-11-24T05:41:41.721Z,99535.41
2022-11-24T05:45:03.951Z,99544.66
2022-11-24T05:48:08.040Z,99549.19
2022-11-24T05:51:25.926Z,99544.94
2022-11-24T05:54:34.839Z,99550.25
2022-11-24T05:57:43.950Z,99565.38
2022-11-24T06:00:52.581Z,99565.09
2022-11-24T06:04:06.932Z,99562.97
2022-11-24T06:07:11.271Z,99565.91
2022-11-24T06:10:27.950Z,99568.56
2022-11-24T06:13:29.911Z,99569.91
2022-11-24T06:16:44.976Z,99566.44
2022-11-24T06:19:53.927Z,99565.63
2022-11-24T06:23:02.489Z,99576.81
2022-11-24T06:26:10.902Z,99572.28
2022-11-24T06:29:19.544Z,99576.53
2022-11-24T06:32:27.903Z,99567.00
2022-11-24T06:35:36.549Z,99585.03
2022-11-24T06:38:50.939Z,99595.63
2022-11-24T06:42:05.939Z,99606.25
2022-11-24T06:45:14.271Z,99607.06
2022-11-24T06:48:29.947Z,99615.56
2022-11-24T06:51:37.931Z,99613.44
2022-11-24T06:54:46.469Z,99608.12
2022-11-24T06:58:00.916Z,99620.59
2022-11-24T07:01:09.970Z,99618.75
2022-11-24T07:04:25.923Z,99619.00
2022-11-24T07:07:34.045Z,99638.41
2022-11-24T07:10:42.507Z,99633.59
2022-11-24T07:14:00.096Z,99643.69
2022-11-24T07:17:03.425Z,99642.87
2022-11-24T07:20:17.965Z,99645.00
2022-11-24T07:23:19.835Z,99655.38
2022-11-24T07:26:34.947Z,99655.09
2022-11-24T07:29:36.985Z,99660.16
2022-11-24T07:32:51.990Z,99660.41
2022-11-24T07:36:01.161Z,99662.00
2022-11-24T07:39:11.943Z,99664.38
2022-11-24T07:42:33.924Z,99664.13
2022-11-24T07:45:42.742Z,99676.09
2022-11-24T07:48:57.930Z,99661.47
2022-11-24T07:52:07.934Z,99662.00
2022-11-24T07:55:16.963Z,99675.03
2022-11-24T07:58:32.381Z,99676.62
2022-11-24T08:01:48.010Z,99689.91
2022-11-24T08:04:56.569Z,99681.41
2022-11-24T08:08:10.964Z,99682.97
2022-11-24T08:11:15.061Z,99682.47
2022-11-24T08:14:29.988Z,99697.06
2022-11-24T08:17:31.980Z,99688.53
2022-11-24T08:20:47.508Z,99690.38
2022-11-24T08:24:03.953Z,99693.59
2022-11-24T08:27:19.913Z,99697.59
2022-11-24T08:30:24.609Z,99705.81
2022-11-24T08:33:40.073Z,99702.06
2022-11-24T08:36:48.752Z,99703.66
2022-11-24T08:39:56.955Z,99713.78
2022-11-24T08:43:12.180Z,99720.16
2022-11-24T08:46:22.958Z,99726.03
2022-11-24T08:49:31.520Z,99719.91
2022-11-24T08:52:40.947Z,99721.25
2022-11-24T08:55:51.312Z,99730.81
2022-11-24T08:59:07.032Z,99725.50
2022-11-24T09:02:15.517Z,99736.94
2022-11-24T09:05:50.652Z,99730.84
2022-11-24T09:08:54.683Z,99738.00
2022-11-24T09:12:02.924Z,99732.41
2022-11-24T09:15:18.923Z,99737.44
2022-11-24T09:18:30.403Z,99735.06
2022-11-24T09:21:39.546Z,99727.91
2022-11-24T09:24:53.962Z,99744.09
2022-11-24T09:28:02.964Z,99740.09
2022-11-24T09:31:13.945Z,99752.59
2022-11-24T09:34:22.928Z,99750.19
2022-11-24T09:37:33.094Z,99740.91
2022-11-24T09:41:06.026Z,99742.47
2022-11-24T09:44:38.956Z,99739.22
2022-11-24T09:47:57.862Z,99751.97
2022-11-24T09:51:17.912Z,99739.16
2022-11-24T09:54:35.914Z,99740.16
2022-11-24T09:57:50.917Z,99735.13
2022-11-24T10:01:05.988Z,99747.09
2022-11-24T10:04:34.987Z,99758.03
2022-11-24T10:08:16.957Z,99749.75
2022-11-24T10:11:50.935Z,99735.63
2022-11-24T10:15:21.099Z,99746.00
2022-11-24T10:19:08.565Z,99744.41
2022-11-24T10:22:45.056Z,99749.75
2022-11-24T10:26:08.314Z,99752.72
2022-11-24T10:29:30.451Z,99755.63
2022-11-24T10:32:46.724Z,99762.28
2022-11-24T10:36:04.922Z,99756.44
2022-11-24T10:39:37.226Z,99737.81
2022-11-24T10:42:52.944Z,99758.00
2022-11-24T10:46:37.927Z,99760.91
2022-11-24T10:49:56.661Z,99763.59
2022-11-24T10:53:31.917Z,99772.00
2022-11-24T10:56:44.387Z,99783.44
2022-11-24T10:59:58.910Z,99789.28
2022-11-24T11:03:25.928Z,99780.44
2022-11-24T11:06:27.834Z,99790.03
2022-11-24T11:09:42.954Z,99800.94
2022-11-24T11:12:51.460Z,99801.19
2022-11-24T11:16:00.987Z,99804.84
2022-11-24T11:19:48.865Z,99808.63
2022-11-24T11:23:08.139Z,99805.97
2022-11-24T11:26:32.283Z,99807.00
2022-11-24T11:36:43.512Z,99802.69
2022-11-24T11:39:57.970Z,99809.84
2022-11-24T11:43:25.937Z,99818.44
2022-11-24T11:46:43.587Z,99820.22
2022-11-24T11:49:54.928Z,99818.03
2022-11-24T11:53:20.726Z,99814.00
2022-11-24T11:56:52.922Z,99828.66
2022-11-24T12:00:07.951Z,99827.94
2022-11-24T12:03:38.122Z,99816.34
2022-11-24T12:07:14.564Z,99820.03
2022-11-24T12:10:57.956Z,99826.44
2022-11-24T12:14:13.088Z,99826.37
2022-11-24T12:17:46.917Z,99825.50
2022-11-24T12:21:29.906Z,99820.28
2022-11-24T12:24:57.101Z,99814.78
2022-11-24T12:28:14.943Z,99819.72
2022-11-24T12:32:06.924Z,99827.88
2022-11-24T12:35:36.902Z,99825.22
2022-11-24T12:38:49.453Z,99822.97
2022-11-24T12:42:19.924Z,99831.25
2022-11-24T12:45:55.955Z,99825.09
2022-11-24T12:49:07.505Z,99841.16
2022-11-24T12:52:24.914Z,99835.44
2022-11-24T12:55:39.924Z,99835.66
2022-11-24T12:59:00.286Z,99837.00
2022-11-24T13:02:46.025Z,99836.78
2022-11-24T13:06:07.545Z,99830.72
2022-11-24T13:09:21.895Z,99833.47
2022-11-24T13:12:30.553Z,99843.16
2022-11-24T13:16:34.764Z,99830.44
2022-11-24T13:19:34.645Z,99838.97
2022-11-24T13:22:45.919Z,99835.19
2022-11-24T13:26:22.952Z,99841.00
2022-11-24T13:29:27.725Z,99821.34
2022-11-24T13:32:42.920Z,99837.53
2022-11-24T13:36:03.451Z,99847.94
2022-11-24T13:39:27.020Z,99855.63
2022-11-24T13:42:44.028Z,99858.06
2022-11-24T13:46:05.953Z,99860.19
2022-11-24T13:49:14.590Z,99866.84
2022-11-24T13:52:47.932Z,99868.72
2022-11-24T13:56:05.884Z,99867.66
2022-11-24T13:59:30.917Z,99869.00
2022-11-24T14:02:43.779Z,99878.31
2022-11-24T14:06:01.921Z,99876.16
2022-11-24T14:09:32.919Z,99881.78
2022-11-24T14:12:43.341Z,99884.16
2022-11-24T14:16:08.144Z,99882.28
2022-11-24T14:19:19.523Z,99895.31
2022-11-24T14:22:38.954Z,99894.28
2022-11-24T14:25:49.845Z,99892.97
2022-11-24T14:29:13.916Z,99894.31
2022-11-24T14:32:31.295Z,99905.47
2022-11-24T14:35:45.106Z,99898.59
2022-11-24T14:38:59.922Z,99897.03
2022-11-24T14:42:14.881Z,99900.47
2022-11-24T14:45:36.931Z,99914.59
2022-11-24T14:48:46.097Z,99911.41
2022-11-24T14:52:08.942Z,99902.91
2022-11-24T14:55:50.911Z,99918.88
2022-11-24T14:58:53.810Z,99923.13
2022-11-24T15:02:11.182Z,99935.72
2022-11-24T15:05:20.895Z,99936.00
2022-11-24T15:08:51.918Z,99930.69
2022-11-24T15:12:09.897Z,99949.34
2022-11-24T15:15:26.915Z,99954.66
2022-11-24T15:18:43.189Z,99948.28
2022-11-24T15:21:51.983Z,99956.28
2022-11-24T15:25:00.817Z,99965.34
2022-11-24T15:28:08.904Z,99965.88
2022-11-24T15:31:17.589Z,99965.91
2022-11-24T15:34:25.899Z,99960.03
2022-11-24T15:37:34.762Z,99962.69
2022-11-24T15:40:51.928Z,99961.66
2022-11-24T15:44:14.990Z,99971.25
2022-11-24T15:47:23.489Z,99979.78
2022-11-24T15:50:38.900Z,99972.84
2022-11-24T15:53:57.180Z,99980.00
2022-11-24T15:57:08.890Z,99971.25
2022-11-24T16:00:26.914Z,99978.72
2022-11-24T16:03:47.056Z,99985.87
2022-11-24T16:07:03.010Z,99993.09
2022-11-24T16:10:34.138Z,99988.81
2022-11-24T16:13:53.640Z,99994.44
2022-11-24T16:17:09.891Z,100006.91
2022-11-24T16:20:26.923Z,99995.72
2022-11-24T16:23:35.136Z,100001.06
2022-11-24T16:26:43.462Z,100002.91
2022-11-24T16:29:57.899Z,100009.56
2022-11-24T16:33:03.956Z,100007.47
2022-11-24T16:36:20.942Z,100005.59
2022-11-24T16:39:23.008Z,100010.09
2022-11-24T16:42:39.241Z,100006.91
2022-11-24T16:46:23.293Z,100009.28
2022-11-24T16:49:25.573Z,100016.22
2022-11-24T16:52:41.304Z,100022.31
2022-11-24T16:55:57.321Z,100020.72
2022-11-24T16:59:12.299Z,100024.19
2022-11-24T17:02:21.913Z,100027.63
2022-11-24T17:05:30.906Z,100025.75
2022-11-24T17:08:46.895Z,100027.34
2022-11-24T17:11:55.544Z,100023.87
2022-11-24T17:18:43.054Z,100023.87
2022-11-24T17:21:51.962Z,100031.00
2022-11-24T17:25:06.953Z,100043.00
2022-11-24T17:28:09.430Z,100028.34
2022-11-24T17:31:29.187Z,100034.22
2022-11-24T17:34:31.619Z,100034.22
2022-11-24T17:37:46.928Z,100042.97
2022-11-24T17:40:49.677Z,100041.41
2022-11-24T17:44:05.333Z,100055.72
2022-11-24T17:47:14.491Z,100055.97
2022-11-24T17:50:33.721Z,100040.28
2022-11-24T17:53:44.287Z,100058.59
2022-11-24T17:56:53.316Z,100070.56
2022-11-24T18:00:01.926Z,100072.16
2022-11-24T18:03:11.029Z,100066.28
2022-11-24T18:06:27.058Z,100079.59
2022-11-24T18:09:36.528Z,100078.50
2022-11-24T18:12:51.146Z,100087.56
2022-11-24T18:16:03.570Z,100102.19
2022-11-24T18:19:17.720Z,100105.13
2022-11-24T18:22:57.949Z,100102.44
2022-11-24T18:26:10.615Z,100113.56
2022-11-24T18:29:18.820Z,100116.16
2022-11-24T18:32:36.690Z,100112.91
2022-11-24T18:35:56.275Z,100123.91
2022-11-24T18:39:13.911Z,100123.62
2022-11-24T18:42:25.613Z,100118.59
2022-11-24T18:45:41.292Z,100125.25
2022-11-24T18:48:49.969Z,100133.72
2022-11-24T18:52:05.288Z,100132.97
2022-11-24T18:55:20.278Z,100146.75
2022-11-24T18:58:28.899Z,100140.16
2022-11-24T19:01:46.193Z,100145.94
2022-11-24T19:05:01.904Z,100152.56
2022-11-24T19:08:05.270Z,100152.31
2022-11-24T19:11:41.282Z,100155.97
2022-11-24T19:14:43.744Z,100152.28
2022-11-24T19:18:01.310Z,100159.72
2022-11-24T19:21:03.893Z,100162.37
2022-11-24T19:24:20.313Z,100167.66
2022-11-24T19:27:29.367Z,100172.69
2022-11-24T19:30:37.993Z,100170.53
2022-11-24T19:33:53.373Z,100186.19
2022-11-24T19:36:55.910Z,100192.53
2022-11-24T19:40:13.288Z,100184.78
2022-11-24T19:43:24.875Z,100197.81
2022-11-24T19:46:47.886Z,100203.94
2022-11-24T19:49:50.865Z,100204.19
2022-11-24T19:53:07.030Z,100203.88
2022-11-24T19:56:18.919Z,100213.16
2022-11-24T19:59:33.986Z,100213.66
2022-11-24T20:02:38.203Z,100229.03
2022-11-24T20:06:04.306Z,100230.50
2022-11-24T20:09:10.007Z,100243.38
2022-11-24T20:12:25.404Z,100240.06
2022-11-24T20:15:34.028Z,100242.97
2022-11-24T20:18:45.344Z,100246.78
2022-11-24T20:22:01.479Z,100254.00
2022-11-24T20:25:10.401Z,100259.59
2022-11-24T20:28:25.914Z,100268.66
2022-11-24T20:31:40.313Z,100259.41
2022-11-24T20:34:55.317Z,100262.88
2022-11-24T20:38:04.322Z,100269.22
2022-11-24T20:41:19.608Z,100270.28
2022-11-24T20:44:35.054Z,100277.50
2022-11-24T20:47:50.280Z,100283.91
2022-11-24T20:50:59.268Z,100282.62
2022-11-24T20:54:16.320Z,100291.94
2022-11-24T20:57:18.891Z,100283.91
2022-11-24T21:00:35.355Z,100283.38
2022-11-24T21:03:45.738Z,100286.47
2022-11-24T21:07:01.303Z,100292.88
2022-11-24T21:10:10.333Z,100290.38
2022-11-24T21:13:18.433Z,100293.88
2022-11-24T21:16:31.018Z,100300.94
2022-11-24T21:19:45.936Z,100297.87
2022-11-24T21:22:53.921Z,100302.75
2022-11-24T21:26:05.722Z,100308.22
2022-11-24T21:29:15.881Z,100312.72
2022-11-24T21:32:30.901Z,100309.59
2022-11-24T21:35:39.497Z,100306.06
2022-11-24T21:38:49.000Z,100311.22
2022-11-24T21:41:57.614Z,100305.28
2022-11-24T21:45:13.904Z,100304.09
2022-11-24T21:48:22.515Z,100307.12
2022-11-24T21:51:36.893Z,100317.19
2022-11-24T21:54:38.782Z,100318.53
2022-11-24T21:57:53.934Z,100311.31
2022-11-24T22:01:01.998Z,100313.09
2022-11-24T22:04:16.920Z,100309.56
2022-11-24T22:07:18.859Z,100313.00
2022-11-24T22:10:35.861Z,100305.03
2022-11-24T22:13:51.891Z,100313.69
2022-11-24T22:16:53.860Z,100310.31
2022-11-24T22:20:09.865Z,100324.25
2022-11-24T22:23:18.885Z,100329.22
2022-11-24T22:26:28.541Z,100337.06
2022-11-24T22:29:36.873Z,100342.84
2022-11-24T22:32:45.527Z,100345.13
2022-11-24T22:36:02.877Z,100341.81
2022-11-24T22:39:12.586Z,100357.81
2022-11-24T22:42:27.847Z,100358.72
2022-11-24T22:45:36.186Z,100353.56
2022-11-24T22:48:55.869Z,100348.72
2022-11-24T22:52:10.898Z,100357.00
2022-11-24T22:55:19.430Z,100367.16
2022-11-24T22:58:33.875Z,100358.41
2022-11-24T23:01:35.817Z,100370.22
2022-11-24T23:04:50.879Z,100365.78
2022-11-24T23:07:52.880Z,100366.09
2022-11-24T23:11:13.883Z,100360.53
2022-11-24T23:14:28.875Z,100360.28
2022-11-24T23:17:30.772Z,100366.19
2022-11-24T23:20:45.851Z,100372.16
2022-11-24T23:23:49.178Z,100379.41
2022-11-24T23:27:03.870Z,100377.38
2022-11-24T23:30:07.764Z,100384.59
2022-11-24T23:33:22.870Z,100384.12
2022-11-24T23:36:31.884Z,100383.88
2022-11-24T23:39:40.533Z,100392.38
2022-11-24T23:42:55.873Z,100393.69
2022-11-24T23:46:17.556Z,100402.22
2022-11-24T23:49:25.863Z,100397.22
2022-11-24T23:52:41.860Z,100387.59
2022-11-24T23:56:01.907Z,100396.41
2022-11-24T23:59:04.743Z,100394.81
